sensor_id;sensor_type;location;lat;lon;timestamp;P1;durP1;ratioP1;P2;durP2;ratioP2
16286;SDS011;8251;53.568;10.018;2023-11-19T00:02:29;8.73;;;5.13;;
16286;SDS011;8251;53.568;10.018;2023-11-19T00:04:56;10.53;;;5.93;;
16286;SDS011;8251;53.568;10.018;2023-11-19T00:07:24;9.13;;;5.57;;
16286;SDS011;8251;53.568;10.018;2023-11-19T00:09:51;10.73;;;5.73;;
16286;SDS011;8251;53.568;10.018;2023-11-19T00:12:20;8.40;;;4.70;;
16286;SDS011;8251;53.568;10.018;2023-11-19T00:14:49;7.77;;;4.73;;
16286;SDS011;8251;53.568;10.018;2023-11-19T00:17:16;6.10;;;4.30;;
16286;SDS011;8251;53.568;10.018;2023-11-19T00:19:44;8.10;;;4.33;;
16286;SDS011;8251;53.568;10.018;2023-11-19T00:22:11;8.10;;;4.43;;
16286;SDS011;8251;53.568;10.018;2023-11-19T00:24:39;7.97;;;4.53;;
16286;SDS011;8251;53.568;10.018;2023-11-19T00:27:06;8.33;;;4.50;;
16286;SDS011;8251;53.568;10.018;2023-11-19T00:29:34;3.90;;;3.07;;
16286;SDS011;8251;53.568;10.018;2023-11-19T00:32:03;6.40;;;4.13;;
16286;SDS011;8251;53.568;10.018;2023-11-19T00:34:32;6.43;;;3.87;;
16286;SDS011;8251;53.568;10.018;2023-11-19T00:36:59;5.17;;;3.67;;
16286;SDS011;8251;53.568;10.018;2023-11-19T00:39:29;4.27;;;3.17;;
16286;SDS011;8251;53.568;10.018;2023-11-19T00:41:55;5.47;;;3.60;;
16286;SDS011;8251;53.568;10.018;2023-11-19T00:44:23;3.80;;;3.30;;
16286;SDS011;8251;53.568;10.018;2023-11-19T00:46:51;4.50;;;2.90;;
16286;SDS011;8251;53.568;10.018;2023-11-19T00:49:19;5.83;;;3.57;;
16286;SDS011;8251;53.568;10.018;2023-11-19T00:51:46;3.97;;;2.97;;
16286;SDS011;8251;53.568;10.018;2023-11-19T00:54:14;6.40;;;3.37;;
16286;SDS011;8251;53.568;10.018;2023-11-19T00:56:41;4.40;;;2.73;;
16286;SDS011;8251;53.568;10.018;2023-11-19T00:59:09;5.53;;;3.20;;
16286;SDS011;8251;53.568;10.018;2023-11-19T01:01:37;5.40;;;3.43;;
16286;SDS011;8251;53.568;10.018;2023-11-19T01:04:04;5.40;;;2.70;;
16286;SDS011;8251;53.568;10.018;2023-11-19T01:06:33;4.53;;;2.97;;
16286;SDS011;8251;53.568;10.018;2023-11-19T01:09:01;4.10;;;2.63;;
16286;SDS011;8251;53.568;10.018;2023-11-19T01:11:28;6.17;;;3.10;;
16286;SDS011;8251;53.568;10.018;2023-11-19T01:13:56;4.17;;;2.80;;
16286;SDS011;8251;53.568;10.018;2023-11-19T01:16:23;3.23;;;2.60;;
16286;SDS011;8251;53.568;10.018;2023-11-19T01:18:52;3.87;;;2.60;;
16286;SDS011;8251;53.568;10.018;2023-11-19T01:21:19;3.37;;;2.70;;
16286;SDS011;8251;53.568;10.018;2023-11-19T01:23:48;8.50;;;2.70;;
16286;SDS011;8251;53.568;10.018;2023-11-19T01:26:15;3.73;;;2.77;;
16286;SDS011;8251;53.568;10.018;2023-11-19T01:28:42;11.13;;;2.83;;
16286;SDS011;8251;53.568;10.018;2023-11-19T01:31:11;3.77;;;2.50;;
16286;SDS011;8251;53.568;10.018;2023-11-19T01:33:41;5.83;;;2.60;;
16286;SDS011;8251;53.568;10.018;2023-11-19T01:36:09;3.63;;;2.60;;
16286;SDS011;8251;53.568;10.018;2023-11-19T01:38:39;2.53;;;1.87;;
16286;SDS011;8251;53.568;10.018;2023-11-19T01:41:07;3.17;;;2.20;;
16286;SDS011;8251;53.568;10.018;2023-11-19T01:43:34;3.70;;;2.20;;
16286;SDS011;8251;53.568;10.018;2023-11-19T01:46:04;2.00;;;1.80;;
16286;SDS011;8251;53.568;10.018;2023-11-19T01:48:33;2.93;;;2.10;;
16286;SDS011;8251;53.568;10.018;2023-11-19T01:51:01;2.87;;;2.10;;
16286;SDS011;8251;53.568;10.018;2023-11-19T01:53:30;2.90;;;2.03;;
16286;SDS011;8251;53.568;10.018;2023-11-19T01:55:58;3.80;;;1.90;;
16286;SDS011;8251;53.568;10.018;2023-11-19T01:58:28;4.90;;;2.03;;
16286;SDS011;8251;53.568;10.018;2023-11-19T02:00:56;6.57;;;1.73;;
16286;SDS011;8251;53.568;10.018;2023-11-19T02:03:23;2.57;;;1.60;;
16286;SDS011;8251;53.568;10.018;2023-11-19T02:05:54;1.70;;;1.20;;
16286;SDS011;8251;53.568;10.018;2023-11-19T02:08:21;1.77;;;1.53;;
16286;SDS011;8251;53.568;10.018;2023-11-19T02:10:49;1.73;;;1.17;;
16286;SDS011;8251;53.568;10.018;2023-11-19T02:13:17;3.17;;;1.23;;
16286;SDS011;8251;53.568;10.018;2023-11-19T02:15:46;3.23;;;1.27;;
16286;SDS011;8251;53.568;10.018;2023-11-19T02:18:20;3.43;;;1.50;;
16286;SDS011;8251;53.568;10.018;2023-11-19T02:20:48;1.33;;;1.23;;
16286;SDS011;8251;53.568;10.018;2023-11-19T02:23:16;1.50;;;1.30;;
16286;SDS011;8251;53.568;10.018;2023-11-19T02:25:46;1.70;;;1.20;;
16286;SDS011;8251;53.568;10.018;2023-11-19T02:28:27;1.80;;;1.40;;
16286;SDS011;8251;53.568;10.018;2023-11-19T02:30:54;1.63;;;1.23;;
16286;SDS011;8251;53.568;10.018;2023-11-19T02:33:21;1.40;;;1.30;;
16286;SDS011;8251;53.568;10.018;2023-11-19T02:35:50;1.70;;;1.40;;
16286;SDS011;8251;53.568;10.018;2023-11-19T02:38:17;2.63;;;1.20;;
16286;SDS011;8251;53.568;10.018;2023-11-19T02:40:46;2.07;;;1.50;;
16286;SDS011;8251;53.568;10.018;2023-11-19T02:43:13;4.40;;;1.10;;
16286;SDS011;8251;53.568;10.018;2023-11-19T02:45:41;1.83;;;1.30;;
16286;SDS011;8251;53.568;10.018;2023-11-19T02:48:10;7.73;;;1.20;;
16286;SDS011;8251;53.568;10.018;2023-11-19T02:50:39;2.27;;;1.10;;
16286;SDS011;8251;53.568;10.018;2023-11-19T02:53:06;1.27;;;1.10;;
16286;SDS011;8251;53.568;10.018;2023-11-19T02:55:33;2.13;;;1.30;;
16286;SDS011;8251;53.568;10.018;2023-11-19T02:58:03;1.40;;;1.10;;
16286;SDS011;8251;53.568;10.018;2023-11-19T03:00:39;1.57;;;1.30;;
16286;SDS011;8251;53.568;10.018;2023-11-19T03:03:15;1.30;;;1.20;;
16286;SDS011;8251;53.568;10.018;2023-11-19T03:05:46;1.20;;;1.10;;
16286;SDS011;8251;53.568;10.018;2023-11-19T03:08:13;1.30;;;1.20;;
16286;SDS011;8251;53.568;10.018;2023-11-19T03:10:41;2.77;;;1.10;;
16286;SDS011;8251;53.568;10.018;2023-11-19T03:13:10;3.10;;;1.10;;
16286;SDS011;8251;53.568;10.018;2023-11-19T03:15:39;2.70;;;1.30;;
16286;SDS011;8251;53.568;10.018;2023-11-19T03:18:07;1.43;;;1.00;;
16286;SDS011;8251;53.568;10.018;2023-11-19T03:20:36;1.17;;;1.00;;
16286;SDS011;8251;53.568;10.018;2023-11-19T03:23:03;1.37;;;1.10;;
16286;SDS011;8251;53.568;10.018;2023-11-19T03:25:31;1.10;;;1.00;;
16286;SDS011;8251;53.568;10.018;2023-11-19T03:27:59;1.13;;;0.80;;
16286;SDS011;8251;53.568;10.018;2023-11-19T03:30:27;1.57;;;1.20;;
16286;SDS011;8251;53.568;10.018;2023-11-19T03:32:54;1.13;;;1.03;;
16286;SDS011;8251;53.568;10.018;2023-11-19T03:35:22;2.97;;;1.23;;
16286;SDS011;8251;53.568;10.018;2023-11-19T03:37:51;1.27;;;1.17;;
16286;SDS011;8251;53.568;10.018;2023-11-19T03:40:18;1.67;;;1.33;;
16286;SDS011;8251;53.568;10.018;2023-11-19T03:42:45;2.93;;;1.37;;
16286;SDS011;8251;53.568;10.018;2023-11-19T03:45:12;4.27;;;1.73;;
16286;SDS011;8251;53.568;10.018;2023-11-19T03:47:40;1.97;;;1.40;;
16286;SDS011;8251;53.568;10.018;2023-11-19T03:50:07;3.27;;;1.50;;
16286;SDS011;8251;53.568;10.018;2023-11-19T03:52:35;1.50;;;1.40;;
16286;SDS011;8251;53.568;10.018;2023-11-19T03:55:03;1.90;;;1.53;;
16286;SDS011;8251;53.568;10.018;2023-11-19T03:57:33;2.80;;;1.43;;
16286;SDS011;8251;53.568;10.018;2023-11-19T04:00:00;2.20;;;1.57;;
16286;SDS011;8251;53.568;10.018;2023-11-19T04:02:33;1.87;;;1.20;;
16286;SDS011;8251;53.568;10.018;2023-11-19T04:05:00;2.27;;;1.60;;
16286;SDS011;8251;53.568;10.018;2023-11-19T04:07:28;2.13;;;1.60;;
16286;SDS011;8251;53.568;10.018;2023-11-19T04:09:55;1.57;;;1.47;;
16286;SDS011;8251;53.568;10.018;2023-11-19T04:12:23;1.37;;;1.27;;
16286;SDS011;8251;53.568;10.018;2023-11-19T04:14:51;1.47;;;1.37;;
16286;SDS011;8251;53.568;10.018;2023-11-19T04:17:18;2.33;;;1.60;;
16286;SDS011;8251;53.568;10.018;2023-11-19T04:19:45;1.77;;;1.60;;
16286;SDS011;8251;53.568;10.018;2023-11-19T04:22:12;2.07;;;1.73;;
16286;SDS011;8251;53.568;10.018;2023-11-19T04:24:40;1.83;;;1.63;;
16286;SDS011;8251;53.568;10.018;2023-11-19T04:27:09;2.37;;;1.80;;
16286;SDS011;8251;53.568;10.018;2023-11-19T04:29:39;2.57;;;2.00;;
16286;SDS011;8251;53.568;10.018;2023-11-19T04:32:06;3.70;;;1.97;;
16286;SDS011;8251;53.568;10.018;2023-11-19T04:34:34;2.37;;;2.10;;
16286;SDS011;8251;53.568;10.018;2023-11-19T04:37:02;2.77;;;2.37;;
16286;SDS011;8251;53.568;10.018;2023-11-19T04:39:30;3.13;;;2.60;;
16286;SDS011;8251;53.568;10.018;2023-11-19T04:41:57;3.97;;;2.07;;
16286;SDS011;8251;53.568;10.018;2023-11-19T04:44:24;4.33;;;2.30;;
16286;SDS011;8251;53.568;10.018;2023-11-19T04:46:52;8.20;;;2.60;;
16286;SDS011;8251;53.568;10.018;2023-11-19T04:52:41;4.57;;;3.30;;
16286;SDS011;8251;53.568;10.018;2023-11-19T04:55:10;5.57;;;3.40;;
16286;SDS011;8251;53.568;10.018;2023-11-19T04:57:39;6.33;;;3.67;;
16286;SDS011;8251;53.568;10.018;2023-11-19T05:00:06;6.43;;;4.30;;
16286;SDS011;8251;53.568;10.018;2023-11-19T05:02:36;6.63;;;4.43;;
16286;SDS011;8251;53.568;10.018;2023-11-19T05:05:04;9.33;;;4.63;;
16286;SDS011;8251;53.568;10.018;2023-11-19T05:07:31;7.27;;;4.53;;
16286;SDS011;8251;53.568;10.018;2023-11-19T05:09:58;9.17;;;5.00;;
16286;SDS011;8251;53.568;10.018;2023-11-19T05:12:25;7.10;;;4.73;;
16286;SDS011;8251;53.568;10.018;2023-11-19T05:14:52;10.83;;;5.10;;
16286;SDS011;8251;53.568;10.018;2023-11-19T05:17:19;11.87;;;4.70;;
16286;SDS011;8251;53.568;10.018;2023-11-19T05:19:47;11.20;;;5.43;;
16286;SDS011;8251;53.568;10.018;2023-11-19T05:22:15;8.77;;;5.20;;
16286;SDS011;8251;53.568;10.018;2023-11-19T05:24:41;8.13;;;5.50;;
16286;SDS011;8251;53.568;10.018;2023-11-19T05:27:09;10.83;;;5.80;;
16286;SDS011;8251;53.568;10.018;2023-11-19T05:29:38;9.13;;;5.07;;
16286;SDS011;8251;53.568;10.018;2023-11-19T05:32:06;12.57;;;5.57;;
16286;SDS011;8251;53.568;10.018;2023-11-19T05:34:33;10.60;;;5.93;;
16286;SDS011;8251;53.568;10.018;2023-11-19T05:37:01;8.87;;;5.63;;
16286;SDS011;8251;53.568;10.018;2023-11-19T05:39:30;16.13;;;6.90;;
16286;SDS011;8251;53.568;10.018;2023-11-19T05:41:57;11.37;;;5.40;;
16286;SDS011;8251;53.568;10.018;2023-11-19T05:44:24;11.20;;;5.57;;
16286;SDS011;8251;53.568;10.018;2023-11-19T05:46:51;8.57;;;4.87;;
16286;SDS011;8251;53.568;10.018;2023-11-19T05:49:18;9.53;;;4.77;;
16286;SDS011;8251;53.568;10.018;2023-11-19T05:51:45;8.93;;;4.83;;
16286;SDS011;8251;53.568;10.018;2023-11-19T05:54:13;10.70;;;5.00;;
16286;SDS011;8251;53.568;10.018;2023-11-19T05:56:41;11.57;;;4.83;;
16286;SDS011;8251;53.568;10.018;2023-11-19T05:59:08;8.93;;;5.43;;
16286;SDS011;8251;53.568;10.018;2023-11-19T06:01:40;17.23;;;6.00;;
16286;SDS011;8251;53.568;10.018;2023-11-19T06:04:08;20.97;;;8.33;;
16286;SDS011;8251;53.568;10.018;2023-11-19T06:06:35;26.90;;;8.67;;
16286;SDS011;8251;53.568;10.018;2023-11-19T06:09:02;30.57;;;10.47;;
16286;SDS011;8251;53.568;10.018;2023-11-19T06:11:33;32.40;;;10.30;;
16286;SDS011;8251;53.568;10.018;2023-11-19T06:14:01;28.50;;;11.83;;
16286;SDS011;8251;53.568;10.018;2023-11-19T06:16:30;41.47;;;11.90;;
16286;SDS011;8251;53.568;10.018;2023-11-19T06:18:57;33.37;;;10.23;;
16286;SDS011;8251;53.568;10.018;2023-11-19T06:21:24;28.27;;;11.80;;
16286;SDS011;8251;53.568;10.018;2023-11-19T06:23:51;34.80;;;10.10;;
16286;SDS011;8251;53.568;10.018;2023-11-19T06:26:18;30.67;;;10.67;;
16286;SDS011;8251;53.568;10.018;2023-11-19T06:28:48;33.67;;;11.37;;
16286;SDS011;8251;53.568;10.018;2023-11-19T06:31:15;25.73;;;10.83;;
16286;SDS011;8251;53.568;10.018;2023-11-19T06:33:51;31.93;;;10.27;;
16286;SDS011;8251;53.568;10.018;2023-11-19T06:36:18;30.87;;;9.53;;
16286;SDS011;8251;53.568;10.018;2023-11-19T06:38:45;29.00;;;9.63;;
16286;SDS011;8251;53.568;10.018;2023-11-19T06:41:12;29.63;;;8.50;;
16286;SDS011;8251;53.568;10.018;2023-11-19T06:43:39;28.87;;;8.00;;
16286;SDS011;8251;53.568;10.018;2023-11-19T06:46:13;26.67;;;8.47;;
16286;SDS011;8251;53.568;10.018;2023-11-19T06:48:41;37.23;;;8.67;;
16286;SDS011;8251;53.568;10.018;2023-11-19T06:51:09;35.30;;;9.30;;
16286;SDS011;8251;53.568;10.018;2023-11-19T06:53:36;27.87;;;8.37;;
16286;SDS011;8251;53.568;10.018;2023-11-19T06:56:04;24.83;;;8.00;;
16286;SDS011;8251;53.568;10.018;2023-11-19T06:58:35;24.33;;;7.40;;
16286;SDS011;8251;53.568;10.018;2023-11-19T07:01:06;27.40;;;7.17;;
16286;SDS011;8251;53.568;10.018;2023-11-19T07:03:35;24.77;;;8.10;;
16286;SDS011;8251;53.568;10.018;2023-11-19T07:06:02;20.90;;;7.07;;
16286;SDS011;8251;53.568;10.018;2023-11-19T07:08:30;29.60;;;7.03;;
16286;SDS011;8251;53.568;10.018;2023-11-19T07:10:57;22.13;;;6.43;;
16286;SDS011;8251;53.568;10.018;2023-11-19T07:13:24;24.37;;;6.63;;
16286;SDS011;8251;53.568;10.018;2023-11-19T07:15:53;20.07;;;5.57;;
16286;SDS011;8251;53.568;10.018;2023-11-19T07:18:21;26.00;;;6.10;;
16286;SDS011;8251;53.568;10.018;2023-11-19T07:20:48;28.00;;;5.70;;
16286;SDS011;8251;53.568;10.018;2023-11-19T07:23:15;23.83;;;5.77;;
16286;SDS011;8251;53.568;10.018;2023-11-19T07:25:42;29.67;;;6.60;;
16286;SDS011;8251;53.568;10.018;2023-11-19T07:28:12;16.07;;;5.17;;
16286;SDS011;8251;53.568;10.018;2023-11-19T07:30:39;23.90;;;4.47;;
16286;SDS011;8251;53.568;10.018;2023-11-19T07:33:06;20.40;;;4.67;;
16286;SDS011;8251;53.568;10.018;2023-11-19T07:35:35;24.33;;;4.80;;
16286;SDS011;8251;53.568;10.018;2023-11-19T07:38:02;28.83;;;4.27;;
16286;SDS011;8251;53.568;10.018;2023-11-19T07:40:29;19.70;;;3.97;;
16286;SDS011;8251;53.568;10.018;2023-11-19T07:42:55;28.57;;;3.70;;
16286;SDS011;8251;53.568;10.018;2023-11-19T07:45:22;20.43;;;4.33;;
16286;SDS011;8251;53.568;10.018;2023-11-19T07:47:49;22.37;;;3.67;;
16286;SDS011;8251;53.568;10.018;2023-11-19T07:50:16;21.57;;;4.10;;
16286;SDS011;8251;53.568;10.018;2023-11-19T07:52:46;20.33;;;4.00;;
16286;SDS011;8251;53.568;10.018;2023-11-19T07:55:13;17.33;;;3.83;;
16286;SDS011;8251;53.568;10.018;2023-11-19T07:57:40;28.50;;;4.37;;
16286;SDS011;8251;53.568;10.018;2023-11-19T08:00:08;22.37;;;4.37;;
16286;SDS011;8251;53.568;10.018;2023-11-19T08:02:37;18.93;;;3.30;;
16286;SDS011;8251;53.568;10.018;2023-11-19T08:05:05;19.07;;;4.37;;
16286;SDS011;8251;53.568;10.018;2023-11-19T08:07:32;25.43;;;3.80;;
16286;SDS011;8251;53.568;10.018;2023-11-19T08:10:00;24.83;;;3.47;;
16286;SDS011;8251;53.568;10.018;2023-11-19T08:12:27;18.83;;;4.00;;
16286;SDS011;8251;53.568;10.018;2023-11-19T08:14:54;27.90;;;4.57;;
16286;SDS011;8251;53.568;10.018;2023-11-19T08:17:23;27.73;;;3.90;;
16286;SDS011;8251;53.568;10.018;2023-11-19T08:19:50;32.00;;;4.77;;
16286;SDS011;8251;53.568;10.018;2023-11-19T08:22:18;24.80;;;3.93;;
16286;SDS011;8251;53.568;10.018;2023-11-19T08:24:45;28.43;;;4.47;;
16286;SDS011;8251;53.568;10.018;2023-11-19T08:27:13;29.83;;;4.67;;
16286;SDS011;8251;53.568;10.018;2023-11-19T08:29:40;25.53;;;4.57;;
16286;SDS011;8251;53.568;10.018;2023-11-19T08:32:07;21.93;;;4.37;;
16286;SDS011;8251;53.568;10.018;2023-11-19T08:34:36;28.37;;;4.03;;
16286;SDS011;8251;53.568;10.018;2023-11-19T08:37:03;37.47;;;5.87;;
16286;SDS011;8251;53.568;10.018;2023-11-19T08:39:31;23.30;;;4.57;;
16286;SDS011;8251;53.568;10.018;2023-11-19T08:42:00;23.13;;;3.83;;
16286;SDS011;8251;53.568;10.018;2023-11-19T08:44:29;20.40;;;3.60;;
16286;SDS011;8251;53.568;10.018;2023-11-19T08:46:56;29.17;;;3.50;;
16286;SDS011;8251;53.568;10.018;2023-11-19T08:49:22;22.47;;;3.73;;
16286;SDS011;8251;53.568;10.018;2023-11-19T08:51:49;23.70;;;4.63;;
16286;SDS011;8251;53.568;10.018;2023-11-19T08:54:16;25.90;;;4.53;;
16286;SDS011;8251;53.568;10.018;2023-11-19T08:56:45;25.03;;;3.60;;
16286;SDS011;8251;53.568;10.018;2023-11-19T08:59:12;29.20;;;4.17;;
16286;SDS011;8251;53.568;10.018;2023-11-19T09:01:41;21.03;;;3.37;;
16286;SDS011;8251;53.568;10.018;2023-11-19T09:04:08;18.20;;;3.13;;
16286;SDS011;8251;53.568;10.018;2023-11-19T09:06:36;21.93;;;3.53;;
16286;SDS011;8251;53.568;10.018;2023-11-19T09:09:03;22.07;;;4.60;;
16286;SDS011;8251;53.568;10.018;2023-11-19T09:11:30;26.63;;;4.90;;
16286;SDS011;8251;53.568;10.018;2023-11-19T09:13:58;27.90;;;3.97;;
16286;SDS011;8251;53.568;10.018;2023-11-19T09:16:26;33.37;;;3.80;;
16286;SDS011;8251;53.568;10.018;2023-11-19T09:18:55;13.90;;;3.73;;
16286;SDS011;8251;53.568;10.018;2023-11-19T09:21:23;29.47;;;3.83;;
16286;SDS011;8251;53.568;10.018;2023-11-19T09:23:50;23.87;;;3.80;;
16286;SDS011;8251;53.568;10.018;2023-11-19T09:26:18;24.53;;;4.03;;
16286;SDS011;8251;53.568;10.018;2023-11-19T09:28:45;18.17;;;3.50;;
16286;SDS011;8251;53.568;10.018;2023-11-19T09:31:13;22.03;;;4.47;;
16286;SDS011;8251;53.568;10.018;2023-11-19T09:33:40;27.63;;;4.03;;
16286;SDS011;8251;53.568;10.018;2023-11-19T09:36:09;26.20;;;6.47;;
16286;SDS011;8251;53.568;10.018;2023-11-19T09:38:38;27.03;;;4.80;;
16286;SDS011;8251;53.568;10.018;2023-11-19T09:41:06;19.87;;;3.70;;
16286;SDS011;8251;53.568;10.018;2023-11-19T09:43:34;27.37;;;3.97;;
16286;SDS011;8251;53.568;10.018;2023-11-19T09:46:04;33.73;;;4.77;;
16286;SDS011;8251;53.568;10.018;2023-11-19T09:48:33;26.70;;;3.93;;
16286;SDS011;8251;53.568;10.018;2023-11-19T09:51:02;31.43;;;4.13;;
16286;SDS011;8251;53.568;10.018;2023-11-19T09:53:31;21.47;;;4.03;;
16286;SDS011;8251;53.568;10.018;2023-11-19T09:56:00;26.27;;;5.27;;
16286;SDS011;8251;53.568;10.018;2023-11-19T09:58:28;25.37;;;4.40;;
16286;SDS011;8251;53.568;10.018;2023-11-19T10:00:55;27.73;;;4.00;;
16286;SDS011;8251;53.568;10.018;2023-11-19T10:03:24;25.20;;;5.30;;
16286;SDS011;8251;53.568;10.018;2023-11-19T10:05:53;26.97;;;3.53;;
16286;SDS011;8251;53.568;10.018;2023-11-19T10:08:21;24.40;;;3.77;;
16286;SDS011;8251;53.568;10.018;2023-11-19T10:10:49;21.97;;;3.70;;
16286;SDS011;8251;53.568;10.018;2023-11-19T10:13:17;26.17;;;4.20;;
16286;SDS011;8251;53.568;10.018;2023-11-19T10:15:44;22.83;;;3.33;;
16286;SDS011;8251;53.568;10.018;2023-11-19T10:18:12;32.70;;;3.97;;
16286;SDS011;8251;53.568;10.018;2023-11-19T10:20:40;25.87;;;4.60;;
16286;SDS011;8251;53.568;10.018;2023-11-19T10:23:09;21.87;;;5.10;;
16286;SDS011;8251;53.568;10.018;2023-11-19T10:25:36;21.93;;;4.37;;
16286;SDS011;8251;53.568;10.018;2023-11-19T10:28:04;27.60;;;4.77;;
16286;SDS011;8251;53.568;10.018;2023-11-19T10:30:31;26.70;;;4.40;;
16286;SDS011;8251;53.568;10.018;2023-11-19T10:33:02;26.77;;;3.93;;
16286;SDS011;8251;53.568;10.018;2023-11-19T10:35:31;24.90;;;5.70;;
16286;SDS011;8251;53.568;10.018;2023-11-19T10:37:59;26.63;;;4.60;;
16286;SDS011;8251;53.568;10.018;2023-11-19T10:40:39;27.83;;;4.43;;
16286;SDS011;8251;53.568;10.018;2023-11-19T10:43:07;23.10;;;5.57;;
16286;SDS011;8251;53.568;10.018;2023-11-19T10:45:35;29.30;;;4.23;;
16286;SDS011;8251;53.568;10.018;2023-11-19T10:48:02;30.30;;;3.90;;
16286;SDS011;8251;53.568;10.018;2023-11-19T10:50:32;28.40;;;4.17;;
16286;SDS011;8251;53.568;10.018;2023-11-19T10:53:03;21.63;;;4.23;;
16286;SDS011;8251;53.568;10.018;2023-11-19T10:55:31;33.63;;;4.40;;
16286;SDS011;8251;53.568;10.018;2023-11-19T10:58:00;18.27;;;3.60;;
16286;SDS011;8251;53.568;10.018;2023-11-19T11:00:30;24.17;;;4.40;;
16286;SDS011;8251;53.568;10.018;2023-11-19T11:03:05;25.97;;;3.23;;
16286;SDS011;8251;53.568;10.018;2023-11-19T11:05:36;30.50;;;4.13;;
16286;SDS011;8251;53.568;10.018;2023-11-19T11:08:05;21.83;;;4.17;;
16286;SDS011;8251;53.568;10.018;2023-11-19T11:10:35;21.10;;;3.73;;
16286;SDS011;8251;53.568;10.018;2023-11-19T11:13:06;25.33;;;4.00;;
16286;SDS011;8251;53.568;10.018;2023-11-19T11:15:35;30.37;;;5.60;;
16286;SDS011;8251;53.568;10.018;2023-11-19T11:18:03;21.23;;;3.63;;
16286;SDS011;8251;53.568;10.018;2023-11-19T11:20:37;26.80;;;3.60;;
16286;SDS011;8251;53.568;10.018;2023-11-19T11:23:22;19.73;;;3.20;;
16286;SDS011;8251;53.568;10.018;2023-11-19T11:26:06;26.17;;;3.43;;
16286;SDS011;8251;53.568;10.018;2023-11-19T11:28:52;20.70;;;3.67;;
16286;SDS011;8251;53.568;10.018;2023-11-19T11:31:39;22.47;;;3.77;;
16286;SDS011;8251;53.568;10.018;2023-11-19T11:37:24;22.83;;;3.70;;
16286;SDS011;8251;53.568;10.018;2023-11-19T11:39:58;32.33;;;3.63;;
16286;SDS011;8251;53.568;10.018;2023-11-19T11:42:40;30.57;;;4.10;;
16286;SDS011;8251;53.568;10.018;2023-11-19T11:45:07;27.80;;;6.30;;
16286;SDS011;8251;53.568;10.018;2023-11-19T11:50:47;29.47;;;6.50;;
16286;SDS011;8251;53.568;10.018;2023-11-19T11:53:21;19.80;;;3.73;;
16286;SDS011;8251;53.568;10.018;2023-11-19T11:55:57;29.60;;;3.93;;
16286;SDS011;8251;53.568;10.018;2023-11-19T11:58:29;28.20;;;4.83;;
16286;SDS011;8251;53.568;10.018;2023-11-19T12:00:58;16.87;;;3.77;;
16286;SDS011;8251;53.568;10.018;2023-11-19T12:03:27;24.00;;;4.37;;
16286;SDS011;8251;53.568;10.018;2023-11-19T12:05:56;27.23;;;3.87;;
16286;SDS011;8251;53.568;10.018;2023-11-19T12:08:26;33.77;;;5.73;;
16286;SDS011;8251;53.568;10.018;2023-11-19T12:10:55;26.00;;;4.10;;
16286;SDS011;8251;53.568;10.018;2023-11-19T12:13:24;13.80;;;3.53;;
16286;SDS011;8251;53.568;10.018;2023-11-19T12:16:10;17.83;;;3.33;;
16286;SDS011;8251;53.568;10.018;2023-11-19T12:18:38;30.57;;;4.87;;
16286;SDS011;8251;53.568;10.018;2023-11-19T12:21:06;23.87;;;4.03;;
16286;SDS011;8251;53.568;10.018;2023-11-19T12:23:35;36.03;;;4.27;;
16286;SDS011;8251;53.568;10.018;2023-11-19T12:29:04;17.30;;;3.47;;
16286;SDS011;8251;53.568;10.018;2023-11-19T12:31:32;19.20;;;3.10;;
16286;SDS011;8251;53.568;10.018;2023-11-19T12:34:05;23.83;;;4.00;;
16286;SDS011;8251;53.568;10.018;2023-11-19T12:36:36;22.03;;;3.40;;
16286;SDS011;8251;53.568;10.018;2023-11-19T12:39:05;22.13;;;6.53;;
16286;SDS011;8251;53.568;10.018;2023-11-19T12:41:32;20.10;;;4.10;;
16286;SDS011;8251;53.568;10.018;2023-11-19T12:44:16;21.67;;;4.23;;
16286;SDS011;8251;53.568;10.018;2023-11-19T12:46:43;19.33;;;3.50;;
16286;SDS011;8251;53.568;10.018;2023-11-19T12:49:11;30.83;;;3.87;;
16286;SDS011;8251;53.568;10.018;2023-11-19T12:51:39;29.80;;;3.83;;
16286;SDS011;8251;53.568;10.018;2023-11-19T12:54:06;20.93;;;3.60;;
16286;SDS011;8251;53.568;10.018;2023-11-19T12:56:33;22.33;;;3.33;;
16286;SDS011;8251;53.568;10.018;2023-11-19T12:59:10;20.23;;;3.77;;
16286;SDS011;8251;53.568;10.018;2023-11-19T13:01:39;26.87;;;4.73;;
16286;SDS011;8251;53.568;10.018;2023-11-19T13:04:17;25.30;;;4.83;;
16286;SDS011;8251;53.568;10.018;2023-11-19T13:06:44;27.80;;;7.17;;
16286;SDS011;8251;53.568;10.018;2023-11-19T13:09:21;22.57;;;3.03;;
16286;SDS011;8251;53.568;10.018;2023-11-19T13:11:49;25.10;;;4.10;;
16286;SDS011;8251;53.568;10.018;2023-11-19T13:14:16;26.47;;;3.87;;
16286;SDS011;8251;53.568;10.018;2023-11-19T13:16:45;20.30;;;3.93;;
16286;SDS011;8251;53.568;10.018;2023-11-19T13:19:13;23.33;;;3.33;;
16286;SDS011;8251;53.568;10.018;2023-11-19T13:21:41;23.83;;;4.07;;
16286;SDS011;8251;53.568;10.018;2023-11-19T13:24:11;18.87;;;4.20;;
16286;SDS011;8251;53.568;10.018;2023-11-19T13:26:38;28.03;;;3.63;;
16286;SDS011;8251;53.568;10.018;2023-11-19T13:29:05;20.30;;;3.47;;
16286;SDS011;8251;53.568;10.018;2023-11-19T13:31:32;18.77;;;3.77;;
16286;SDS011;8251;53.568;10.018;2023-11-19T13:34:01;19.83;;;3.20;;
16286;SDS011;8251;53.568;10.018;2023-11-19T13:36:28;20.47;;;4.87;;
16286;SDS011;8251;53.568;10.018;2023-11-19T13:42:17;25.40;;;4.57;;
16286;SDS011;8251;53.568;10.018;2023-11-19T13:44:45;20.53;;;2.73;;
16286;SDS011;8251;53.568;10.018;2023-11-19T13:47:12;24.87;;;3.93;;
16286;SDS011;8251;53.568;10.018;2023-11-19T13:49:40;20.70;;;3.93;;
16286;SDS011;8251;53.568;10.018;2023-11-19T13:52:07;22.60;;;3.80;;
16286;SDS011;8251;53.568;10.018;2023-11-19T13:54:36;29.67;;;3.93;;
16286;SDS011;8251;53.568;10.018;2023-11-19T13:57:03;24.03;;;3.53;;
16286;SDS011;8251;53.568;10.018;2023-11-19T13:59:30;25.83;;;4.13;;
16286;SDS011;8251;53.568;10.018;2023-11-19T14:01:57;23.63;;;3.77;;
16286;SDS011;8251;53.568;10.018;2023-11-19T14:04:24;15.10;;;3.43;;
16286;SDS011;8251;53.568;10.018;2023-11-19T14:06:52;23.37;;;3.13;;
16286;SDS011;8251;53.568;10.018;2023-11-19T14:09:20;22.27;;;3.77;;
16286;SDS011;8251;53.568;10.018;2023-11-19T14:11:47;25.90;;;3.67;;
16286;SDS011;8251;53.568;10.018;2023-11-19T14:14:16;23.37;;;4.07;;
16286;SDS011;8251;53.568;10.018;2023-11-19T14:16:43;29.40;;;4.40;;
16286;SDS011;8251;53.568;10.018;2023-11-19T14:19:11;24.60;;;5.60;;
16286;SDS011;8251;53.568;10.018;2023-11-19T14:21:39;21.43;;;3.67;;
16286;SDS011;8251;53.568;10.018;2023-11-19T14:24:07;25.80;;;3.90;;
16286;SDS011;8251;53.568;10.018;2023-11-19T14:26:36;20.43;;;3.10;;
16286;SDS011;8251;53.568;10.018;2023-11-19T14:29:10;18.13;;;3.93;;
16286;SDS011;8251;53.568;10.018;2023-11-19T14:31:39;24.00;;;5.47;;
16286;SDS011;8251;53.568;10.018;2023-11-19T14:34:14;25.70;;;4.57;;
16286;SDS011;8251;53.568;10.018;2023-11-19T14:36:47;28.70;;;3.90;;
16286;SDS011;8251;53.568;10.018;2023-11-19T14:39:25;23.90;;;4.27;;
16286;SDS011;8251;53.568;10.018;2023-11-19T14:41:52;19.73;;;3.53;;
16286;SDS011;8251;53.568;10.018;2023-11-19T14:44:23;27.47;;;3.40;;
16286;SDS011;8251;53.568;10.018;2023-11-19T14:46:54;22.53;;;3.87;;
16286;SDS011;8251;53.568;10.018;2023-11-19T14:49:21;25.30;;;4.50;;
16286;SDS011;8251;53.568;10.018;2023-11-19T14:51:49;17.07;;;4.03;;
16286;SDS011;8251;53.568;10.018;2023-11-19T14:54:16;23.67;;;4.90;;
16286;SDS011;8251;53.568;10.018;2023-11-19T14:56:44;25.30;;;4.60;;
16286;SDS011;8251;53.568;10.018;2023-11-19T14:59:11;23.43;;;3.73;;
16286;SDS011;8251;53.568;10.018;2023-11-19T15:01:38;26.33;;;3.60;;
16286;SDS011;8251;53.568;10.018;2023-11-19T15:04:05;30.73;;;3.80;;